createdAt,value
2022-08-09T00:00:25.193Z,4.40
2022-08-09T00:01:25.299Z,4.50
2022-08-09T00:02:25.895Z,4.00
2022-08-09T00:04:05.673Z,4.30
2022-08-09T00:04:35.099Z,4.30
2022-08-09T00:06:15.468Z,4.90
2022-08-09T00:06:25.160Z,4.50
2022-08-09T00:07:25.098Z,4.60
2022-08-09T00:08:32.059Z,4.30
2022-08-09T00:09:25.084Z,4.40
2022-08-09T00:10:25.077Z,4.50
2022-08-09T00:11:27.660Z,4.50
2022-08-09T00:12:25.041Z,4.30
2022-08-09T00:13:25.012Z,4.50
2022-08-09T00:14:30.601Z,4.60
2022-08-09T00:15:35.473Z,4.40
2022-08-09T00:16:26.453Z,4.50
2022-08-09T00:18:10.625Z,4.50
2022-08-09T00:18:24.963Z,4.50
2022-08-09T00:19:24.941Z,4.40
2022-08-09T00:20:24.952Z,4.40
2022-08-09T00:21:24.908Z,4.00
2022-08-09T00:22:24.902Z,4.70
2022-08-09T00:23:57.603Z,4.20
2022-08-09T00:24:24.885Z,4.30
2022-08-09T00:25:32.782Z,4.70
2022-08-09T00:26:30.140Z,4.70
2022-08-09T00:27:24.833Z,4.20
2022-08-09T00:28:26.510Z,4.50
2022-08-09T00:30:10.050Z,4.40
2022-08-09T00:30:30.495Z,4.50
2022-08-09T00:31:57.375Z,4.50
2022-08-09T00:32:26.690Z,4.30
2022-08-09T00:33:32.587Z,4.90
2022-08-09T00:34:24.766Z,4.90
2022-08-09T00:35:24.715Z,5.20
2022-08-09T00:36:29.593Z,4.80
2022-08-09T00:37:24.741Z,4.80
2022-08-09T00:38:24.699Z,4.40
2022-08-09T00:40:10.208Z,4.40
2022-08-09T00:40:30.948Z,4.50
2022-08-09T00:44:14.658Z,4.80
2022-08-09T00:44:31.081Z,4.30
2022-08-09T00:44:37.487Z,4.50
2022-08-09T00:45:36.775Z,4.90
2022-08-09T00:46:56.229Z,4.50
2022-08-09T00:47:39.845Z,4.80
2022-08-09T00:48:36.725Z,4.50
2022-08-09T00:49:37.157Z,4.70
2022-08-09T00:50:37.764Z,4.70
2022-08-09T00:51:54.446Z,4.70
2022-08-09T00:52:37.014Z,4.90
2022-08-09T00:53:36.654Z,4.80
2022-08-09T00:54:36.687Z,4.60
2022-08-09T00:56:03.832Z,4.90
2022-08-09T00:56:36.616Z,5.10
2022-08-09T00:57:36.601Z,5.20
2022-08-09T00:58:36.597Z,4.90
2022-08-09T00:59:41.677Z,5.10
2022-08-09T01:00:36.563Z,4.70
2022-08-09T01:01:45.060Z,5.00
2022-08-09T01:02:36.528Z,4.80
2022-08-09T01:03:40.826Z,5.00
2022-08-09T01:04:36.505Z,4.70
2022-08-09T01:05:51.423Z,4.70
2022-08-09T01:06:54.274Z,4.70
2022-08-09T01:07:37.679Z,5.00
2022-08-09T01:08:36.856Z,4.50
2022-08-09T01:09:36.723Z,5.10
2022-08-09T01:10:36.449Z,4.80
2022-08-09T01:11:36.404Z,5.10
2022-08-09T01:12:36.393Z,4.70
2022-08-09T01:13:41.824Z,4.90
2022-08-09T01:14:36.370Z,4.70
2022-08-09T01:15:37.193Z,5.20
2022-08-09T01:16:36.338Z,4.90
2022-08-09T01:17:36.322Z,4.70
2022-08-09T01:18:36.331Z,4.90
2022-08-09T01:19:42.809Z,5.20
2022-08-09T01:20:36.314Z,5.00
2022-08-09T01:21:44.851Z,5.10
2022-08-09T01:22:36.257Z,4.90
2022-08-09T01:24:02.107Z,5.10
2022-08-09T01:24:36.238Z,5.10
2022-08-09T01:25:41.543Z,5.10
2022-08-09T01:26:36.207Z,5.00
2022-08-09T01:27:36.203Z,4.90
2022-08-09T01:28:36.212Z,4.90
2022-08-09T01:29:41.165Z,4.80
2022-08-09T01:30:51.613Z,5.10
2022-08-09T01:32:29.459Z,4.90
2022-08-09T01:32:37.858Z,5.40
2022-08-09T01:33:36.119Z,4.90
2022-08-09T01:34:36.085Z,5.20
2022-08-09T01:35:37.943Z,5.10
2022-08-09T01:36:36.108Z,5.40
2022-08-09T01:38:06.340Z,5.00
2022-08-09T01:38:36.049Z,5.50
2022-08-09T01:39:36.130Z,5.20
2022-08-09T01:40:36.032Z,5.10
2022-08-09T01:41:35.999Z,5.00
2022-08-09T01:42:35.993Z,5.00
2022-08-09T01:43:50.213Z,5.00
2022-08-09T01:44:35.973Z,5.20
2022-08-09T01:45:35.967Z,5.00
2022-08-09T01:46:35.959Z,5.20
2022-08-09T01:47:44.548Z,5.00
2022-08-09T01:48:35.921Z,5.40
2022-08-09T01:49:39.114Z,5.10
2022-08-09T01:50:36.945Z,5.50
2022-08-09T01:51:35.882Z,5.30
2022-08-09T01:52:35.898Z,5.50
2022-08-09T01:53:41.591Z,5.10
2022-08-09T01:54:35.836Z,5.60
2022-08-09T01:55:35.819Z,5.30
2022-08-09T01:56:36.414Z,5.70
2022-08-09T01:57:40.397Z,5.40
2022-08-09T01:58:35.790Z,5.60
2022-08-09T01:59:50.826Z,5.40
2022-08-09T02:00:36.362Z,5.70
2022-08-09T02:02:00.272Z,5.10
2022-08-09T02:02:36.111Z,5.30
2022-08-09T02:03:35.890Z,5.40
2022-08-09T02:04:35.693Z,5.60
2022-08-09T02:05:53.666Z,5.20
2022-08-09T02:06:35.677Z,5.20
2022-08-09T02:08:38.849Z,5.30
2022-08-09T02:09:02.745Z,5.60
2022-08-09T02:09:41.949Z,5.40
2022-08-09T02:10:35.652Z,5.70
2022-08-09T02:11:40.333Z,5.30
2022-08-09T02:12:35.975Z,5.40
2022-08-09T02:13:37.309Z,5.60
2022-08-09T02:14:35.564Z,5.70
2022-08-09T02:15:36.172Z,5.60
2022-08-09T02:16:58.911Z,5.40
2022-08-09T02:18:10.633Z,5.60
2022-08-09T02:18:35.531Z,5.50
2022-08-09T02:19:39.068Z,5.30
2022-08-09T02:20:35.478Z,5.30
2022-08-09T02:21:35.465Z,5.50
2022-08-09T02:22:35.925Z,5.30
2022-08-09T02:23:39.978Z,5.20
2022-08-09T02:24:35.452Z,5.60
2022-08-09T02:25:42.731Z,5.30
2022-08-09T02:26:35.403Z,5.60
2022-08-09T02:27:58.227Z,6.00
2022-08-09T02:28:35.399Z,5.90
2022-08-09T02:29:35.385Z,5.90
2022-08-09T02:30:35.341Z,5.80
2022-08-09T02:31:36.363Z,5.80
2022-08-09T02:32:35.314Z,5.80
2022-08-09T02:33:38.142Z,5.20
2022-08-09T02:34:40.460Z,5.70
2022-08-09T02:36:01.809Z,5.70
2022-08-09T02:36:35.266Z,5.50
2022-08-09T02:37:36.712Z,5.70
2022-08-09T02:38:35.448Z,5.90
2022-08-09T02:39:41.963Z,5.90
2022-08-09T02:40:35.288Z,5.60
2022-08-09T02:41:35.214Z,6.00
2022-08-09T02:42:35.296Z,6.00
2022-08-09T02:43:42.462Z,6.00
2022-08-09T02:44:35.190Z,5.80
2022-08-09T02:45:35.146Z,6.00
2022-08-09T02:46:35.130Z,5.40
2022-08-09T02:47:57.689Z,5.60
2022-08-09T02:48:35.142Z,5.70
2022-08-09T02:49:38.810Z,5.80
2022-08-09T02:50:35.113Z,5.50
2022-08-09T02:51:37.165Z,5.80
2022-08-09T02:52:35.380Z,5.40
2022-08-09T02:53:35.040Z,5.70
2022-08-09T02:54:35.032Z,5.50
2022-08-09T02:55:53.700Z,5.80
2022-08-09T02:56:35.039Z,5.80
2022-08-09T02:57:40.373Z,5.60
2022-08-09T02:58:36.729Z,5.90
2022-08-09T02:59:36.485Z,5.80
2022-08-09T03:00:34.988Z,5.90
2022-08-09T03:01:43.250Z,5.70
2022-08-09T03:02:35.284Z,6.00
2022-08-09T03:04:13.011Z,5.50
2022-08-09T03:04:34.954Z,5.60
2022-08-09T03:05:35.016Z,5.70
2022-08-09T03:06:34.893Z,5.60
2022-08-09T03:07:34.849Z,5.80
2022-08-09T03:08:34.836Z,5.90
2022-08-09T03:09:34.831Z,5.60
2022-08-09T03:10:34.842Z,5.70
2022-08-09T03:12:10.490Z,5.70
2022-08-09T03:12:34.899Z,6.10
2022-08-09T03:13:43.496Z,5.60
2022-08-09T03:14:34.796Z,6.00
2022-08-09T03:16:04.813Z,5.90
2022-08-09T03:16:38.473Z,6.20
2022-08-09T03:17:34.727Z,6.40
2022-08-09T03:18:34.703Z,6.50
2022-08-09T03:19:58.204Z,5.90
2022-08-09T03:20:34.702Z,6.10
2022-08-09T03:21:39.446Z,6.10
2022-08-09T03:22:41.388Z,6.30
2022-08-09T03:23:34.649Z,6.10
2022-08-09T03:24:52.414Z,6.40
2022-08-09T03:25:58.352Z,6.10
2022-08-09T03:26:34.605Z,6.10
2022-08-09T03:27:44.566Z,5.90
2022-08-09T03:28:34.604Z,6.00
2022-08-09T03:29:35.720Z,5.90
2022-08-09T03:30:36.751Z,6.00
2022-08-09T03:31:34.527Z,6.30
2022-08-09T03:32:36.907Z,6.50
2022-08-09T03:33:54.430Z,6.70
2022-08-09T03:34:34.494Z,6.80
2022-08-09T03:35:44.360Z,6.40
2022-08-09T03:36:34.473Z,7.20
2022-08-09T03:37:56.265Z,6.60
2022-08-09T03:38:34.477Z,6.60
2022-08-09T03:39:37.984Z,6.70
2022-08-09T03:40:34.413Z,6.90
2022-08-09T03:41:45.812Z,6.70
2022-08-09T03:42:34.488Z,6.20
2022-08-09T03:43:34.400Z,6.80
2022-08-09T03:44:34.359Z,6.70
2022-08-09T03:46:05.003Z,6.90
2022-08-09T03:46:34.354Z,6.80
2022-08-09T03:47:36.531Z,6.90
2022-08-09T03:48:34.340Z,6.60
2022-08-09T03:49:35.847Z,6.90
2022-08-09T03:50:34.279Z,6.30
2022-08-09T03:51:56.537Z,6.70
2022-08-09T03:52:34.535Z,6.40
2022-08-09T03:53:37.160Z,6.60
2022-08-09T03:54:34.448Z,6.40
2022-08-09T03:55:36.143Z,6.60
2022-08-09T03:56:34.205Z,6.40
2022-08-09T03:57:34.199Z,7.80
2022-08-09T03:58:34.181Z,6.80
2022-08-09T03:59:53.441Z,6.80
2022-08-09T04:00:34.224Z,6.40
2022-08-09T04:01:34.147Z,6.50
2022-08-09T04:02:34.350Z,6.80
2022-08-09T04:03:46.261Z,6.20
2022-08-09T04:04:38.732Z,6.80
2022-08-09T04:05:40.227Z,6.40
2022-08-09T04:06:34.070Z,6.80
2022-08-09T04:07:52.776Z,6.50
2022-08-09T04:08:34.037Z,7.00
2022-08-09T04:09:47.557Z,7.10
2022-08-09T04:10:34.049Z,6.80
2022-08-09T04:11:33.992Z,7.20
2022-08-09T04:12:34.016Z,7.40
2022-08-09T04:14:36.952Z,6.70
2022-08-09T04:15:00.636Z,6.90
2022-08-09T04:15:40.674Z,7.50
2022-08-09T04:16:33.940Z,7.30
2022-08-09T04:17:33.910Z,6.90
2022-08-09T04:18:33.904Z,6.80
2022-08-09T04:19:42.935Z,7.10
2022-08-09T04:20:33.976Z,7.20
2022-08-09T04:21:36.218Z,7.20
2022-08-09T04:22:33.989Z,7.50
2022-08-09T04:23:33.833Z,7.70
2022-08-09T04:24:33.829Z,6.90
2022-08-09T04:25:33.819Z,7.60
2022-08-09T04:26:37.969Z,7.00
2022-08-09T04:27:33.779Z,7.20
2022-08-09T04:28:36.379Z,7.20
2022-08-09T04:29:33.811Z,7.20
2022-08-09T04:30:33.766Z,7.60
2022-08-09T04:31:37.626Z,7.70
2022-08-09T04:32:37.204Z,7.20
2022-08-09T04:33:33.706Z,7.50
2022-08-09T04:34:33.696Z,6.90
2022-08-09T04:35:33.704Z,6.80
2022-08-09T04:36:33.658Z,6.70
2022-08-09T04:37:45.145Z,7.00
2022-08-09T04:38:33.683Z,7.00
2022-08-09T04:39:33.655Z,7.00
2022-08-09T04:40:36.476Z,7.10
2022-08-09T04:41:43.406Z,7.70
2022-08-09T04:42:33.997Z,7.90
2022-08-09T04:43:35.834Z,8.10
2022-08-09T04:44:33.568Z,7.50
2022-08-09T04:45:35.983Z,8.20
2022-08-09T04:46:56.898Z,7.30
2022-08-09T04:47:59.181Z,14.40
2022-08-09T04:48:33.796Z,8.40
2022-08-09T04:49:53.295Z,8.70
2022-08-09T04:50:37.715Z,8.90
2022-08-09T04:51:33.497Z,7.70
2022-08-09T04:52:33.855Z,7.40
2022-08-09T04:53:33.453Z,8.20
2022-08-09T04:54:33.439Z,7.90
2022-08-09T04:55:41.029Z,7.60
2022-08-09T04:56:33.400Z,7.50
2022-08-09T04:57:54.176Z,7.50
2022-08-09T04:58:33.875Z,7.30
2022-08-09T04:59:33.345Z,7.10
2022-08-09T05:00:34.469Z,7.80
2022-08-09T05:01:33.327Z,7.40
2022-08-09T05:02:33.585Z,7.70
2022-08-09T05:03:42.817Z,7.40
2022-08-09T05:04:33.384Z,7.00
2022-08-09T05:05:52.106Z,6.60
2022-08-09T05:06:35.754Z,6.80
2022-08-09T05:07:33.244Z,6.40
2022-08-09T05:08:33.270Z,6.80
2022-08-09T05:09:42.004Z,7.10
2022-08-09T05:10:33.251Z,6.60
2022-08-09T05:11:35.535Z,6.80
2022-08-09T05:12:33.488Z,6.90
2022-08-09T05:13:33.937Z,7.20
2022-08-09T05:14:33.178Z,7.20
2022-08-09T05:15:39.392Z,7.00
2022-08-09T05:16:33.189Z,6.70
2022-08-09T05:18:50.777Z,7.10
2022-08-09T05:19:03.455Z,6.90
2022-08-09T05:19:44.727Z,7.40
2022-08-09T05:20:33.079Z,6.70
2022-08-09T05:21:46.600Z,7.30
2022-08-09T05:22:36.111Z,6.80
2022-08-09T05:24:00.477Z,7.10
2022-08-09T05:24:33.029Z,7.20
2022-08-09T05:25:33.014Z,7.40
2022-08-09T05:26:37.166Z,7.00
2022-08-09T05:27:32.996Z,7.10
2022-08-09T05:28:32.981Z,6.80
2022-08-09T05:29:35.396Z,6.90
2022-08-09T05:30:32.945Z,6.60
2022-08-09T05:31:43.999Z,6.40
2022-08-09T05:32:33.084Z,6.30
2022-08-09T05:33:33.297Z,6.30
2022-08-09T05:34:32.945Z,6.10
2022-08-09T05:35:32.868Z,6.00
2022-08-09T05:36:32.907Z,6.10
2022-08-09T05:37:46.435Z,5.90
2022-08-09T05:38:32.846Z,5.90
2022-08-09T05:39:36.378Z,5.40
2022-08-09T05:40:32.813Z,5.80
2022-08-09T05:41:32.789Z,5.60
2022-08-09T05:42:33.124Z,6.10
2022-08-09T05:45:59.808Z,5.80
2022-08-09T05:46:10.820Z,5.70
2022-08-09T05:47:09.587Z,5.70
2022-08-09T05:48:09.573Z,5.90
2022-08-09T05:49:33.870Z,5.60
2022-08-09T05:50:39.983Z,5.40
2022-08-09T05:51:29.981Z,5.60
2022-08-09T05:52:09.522Z,5.30
2022-08-09T05:53:11.614Z,5.10
2022-08-09T05:54:09.497Z,5.50
2022-08-09T05:55:20.943Z,5.10
2022-08-09T05:56:10.312Z,5.50
2022-08-09T05:57:12.865Z,5.40
2022-08-09T05:58:09.460Z,5.60
2022-08-09T05:59:09.445Z,5.40
2022-08-09T06:00:09.424Z,5.20
2022-08-09T06:01:09.404Z,5.20
2022-08-09T06:02:10.069Z,5.00
2022-08-09T06:03:10.721Z,5.60
2022-08-09T06:04:09.398Z,5.10
2022-08-09T06:05:09.346Z,5.20
2022-08-09T06:06:10.281Z,4.90
2022-08-09T06:07:09.470Z,4.90
2022-08-09T06:08:10.947Z,4.80
2022-08-09T06:09:10.048Z,4.90
2022-08-09T06:10:09.280Z,5.00
2022-08-09T06:11:16.735Z,4.90
2022-08-09T06:12:09.248Z,4.70
2022-08-09T06:13:18.473Z,4.60
2022-08-09T06:14:09.321Z,4.60
2022-08-09T06:15:10.265Z,4.60
2022-08-09T06:16:10.205Z,4.90
2022-08-09T06:17:09.839Z,4.40
2022-08-09T06:18:09.200Z,4.50
2022-08-09T06:19:09.196Z,4.50
2022-08-09T06:20:09.152Z,5.00
2022-08-09T06:21:11.793Z,4.90
2022-08-09T06:22:15.190Z,4.90
2022-08-09T06:23:12.099Z,4.80
2022-08-09T06:24:09.125Z,4.70
2022-08-09T06:25:09.078Z,4.70
2022-08-09T06:26:09.061Z,5.00
2022-08-09T06:27:09.047Z,4.80
2022-08-09T06:28:09.037Z,4.30
2022-08-09T06:29:09.069Z,4.50
2022-08-09T06:30:09.589Z,4.50
2022-08-09T06:31:11.927Z,4.60
2022-08-09T06:32:59.157Z,4.60
2022-08-09T06:33:39.589Z,4.30
2022-08-09T06:34:09.365Z,4.60
2022-08-09T06:35:08.946Z,4.30
2022-08-09T06:36:15.792Z,4.50
2022-08-09T06:37:10.112Z,4.10
2022-08-09T06:38:08.913Z,4.80
2022-08-09T06:39:11.393Z,4.10
2022-08-09T06:40:21.579Z,4.00
2022-08-09T06:41:18.930Z,4.40
2022-08-09T06:42:11.457Z,4.70
2022-08-09T06:43:10.554Z,5.20
2022-08-09T06:44:08.827Z,4.40
2022-08-09T06:46:06.261Z,4.50
2022-08-09T06:46:13.152Z,10.70
2022-08-09T06:47:08.781Z,4.50
2022-08-09T06:48:08.762Z,4.20
2022-08-09T06:49:08.796Z,4.30
2022-08-09T06:50:13.361Z,5.00
2022-08-09T06:51:11.307Z,5.40
2022-08-09T06:52:08.711Z,39.00
2022-08-09T06:53:08.701Z,4.70
2022-08-09T06:54:11.813Z,5.20
2022-08-09T06:55:12.844Z,4.30
2022-08-09T06:56:11.298Z,4.40
2022-08-09T06:57:08.642Z,4.00
2022-08-09T06:58:08.633Z,4.10
2022-08-09T07:00:55.187Z,4.10
2022-08-09T07:01:05.867Z,3.90
2022-08-09T07:01:12.803Z,4.00
2022-08-09T07:02:12.785Z,4.50
2022-08-09T07:03:12.735Z,3.60
2022-08-09T07:04:19.743Z,3.70
2022-08-09T07:05:12.709Z,3.90
2022-08-09T07:06:12.706Z,3.70
2022-08-09T07:07:59.949Z,3.90
2022-08-09T07:08:12.689Z,4.20
2022-08-09T07:09:53.505Z,3.80
2022-08-09T07:10:29.700Z,3.90
2022-08-09T07:11:17.701Z,3.70
2022-08-09T07:12:17.516Z,3.80
2022-08-09T07:13:27.417Z,4.10
2022-08-09T07:14:12.624Z,3.60
2022-08-09T07:16:34.791Z,3.90
2022-08-09T07:16:49.748Z,3.50
2022-08-09T07:17:12.585Z,3.30
2022-08-09T07:18:14.257Z,3.80
2022-08-09T07:19:15.104Z,4.30
2022-08-09T07:20:12.513Z,3.70
2022-08-09T07:21:12.514Z,3.30
2022-08-09T07:22:12.482Z,3.60
2022-08-09T07:23:18.962Z,3.50
2022-08-09T07:24:12.452Z,3.60
2022-08-09T07:25:12.461Z,3.90
2022-08-09T07:26:12.450Z,3.40
2022-08-09T07:27:33.032Z,3.80
2022-08-09T07:28:12.403Z,3.60
2022-08-09T07:29:13.339Z,3.30
2022-08-09T07:30:12.373Z,3.30
2022-08-09T07:31:12.379Z,3.60
2022-08-09T07:32:12.351Z,3.50
2022-08-09T07:33:16.546Z,3.60
2022-08-09T07:34:19.540Z,3.60
2022-08-09T07:35:12.320Z,3.40
2022-08-09T07:36:12.316Z,3.30
2022-08-09T07:37:15.868Z,3.30
2022-08-09T07:38:12.291Z,3.40
2022-08-09T07:39:12.343Z,3.50
2022-08-09T07:40:13.081Z,3.40
2022-08-09T07:41:14.905Z,3.30
2022-08-09T07:42:12.209Z,3.30
2022-08-09T07:43:16.881Z,3.10
2022-08-09T07:44:12.208Z,3.40
2022-08-09T07:45:22.748Z,3.20
2022-08-09T07:46:12.160Z,3.60
2022-08-09T07:47:12.150Z,3.30
2022-08-09T07:48:25.583Z,3.50
2022-08-09T07:49:15.215Z,3.30
2022-08-09T07:50:12.105Z,3.60
2022-08-09T07:52:04.507Z,3.50
2022-08-09T07:52:17.051Z,3.20
2022-08-09T07:53:12.075Z,3.10
2022-08-09T07:54:12.047Z,4.90
2022-08-09T07:55:12.033Z,3.40
2022-08-09T07:56:26.604Z,3.60
2022-08-09T07:57:12.090Z,3.80
2022-08-09T07:58:13.265Z,5.40
2022-08-09T07:59:14.223Z,4.30
2022-08-09T08:00:11.975Z,4.00
2022-08-09T08:01:12.092Z,3.40
2022-08-09T08:02:13.177Z,3.30
2022-08-09T08:03:11.932Z,3.20
2022-08-09T08:04:11.919Z,3.30
2022-08-09T08:05:18.085Z,3.10
2022-08-09T08:06:14.391Z,3.30
2022-08-09T08:08:06.525Z,3.40
2022-08-09T08:09:03.427Z,3.10
2022-08-09T08:09:18.200Z,3.10
2022-08-09T08:10:11.905Z,3.10
2022-08-09T08:12:10.639Z,3.00
2022-08-09T08:12:32.094Z,2.80
2022-08-09T08:13:11.796Z,3.20
2022-08-09T08:14:11.812Z,3.00
2022-08-09T08:15:11.778Z,2.80
2022-08-09T08:16:31.326Z,3.20
2022-08-09T08:17:12.194Z,2.90
2022-08-09T08:18:11.735Z,3.10
2022-08-09T08:19:11.745Z,3.40
2022-08-09T08:20:12.701Z,3.20
2022-08-09T08:21:14.330Z,3.00
2022-08-09T08:22:11.696Z,3.00
2022-08-09T08:23:16.729Z,2.90
2022-08-09T08:24:16.696Z,3.00
2022-08-09T08:25:13.467Z,3.00
2022-08-09T08:26:11.696Z,3.10
2022-08-09T08:27:17.144Z,2.80
2022-08-09T08:28:14.337Z,2.90
2022-08-09T08:29:11.583Z,3.00
2022-08-09T08:30:11.574Z,3.00
2022-08-09T08:31:15.034Z,3.00
2022-08-09T08:32:12.556Z,2.90
2022-08-09T08:33:12.020Z,3.00
2022-08-09T08:34:11.534Z,2.70
2022-08-09T08:35:11.499Z,3.20
2022-08-09T08:36:11.520Z,2.90
2022-08-09T08:37:15.715Z,6.30
2022-08-09T08:38:11.997Z,2.70
2022-08-09T08:39:11.502Z,17.80
2022-08-09T08:40:11.435Z,5.90
2022-08-09T08:41:11.445Z,7.60
2022-08-09T08:42:11.408Z,4.40
2022-08-09T08:43:13.409Z,4.90
2022-08-09T08:44:13.896Z,4.30
2022-08-09T08:45:13.536Z,3.20
2022-08-09T08:46:33.091Z,2.90
2022-08-09T08:47:12.764Z,3.10
2022-08-09T08:48:11.344Z,3.00
2022-08-09T08:49:12.760Z,3.00
2022-08-09T08:50:11.305Z,3.10
2022-08-09T08:51:11.283Z,2.80
2022-08-09T08:52:20.344Z,2.80
2022-08-09T08:53:15.882Z,2.80
2022-08-09T08:54:11.281Z,2.80
2022-08-09T08:55:11.228Z,2.70
2022-08-09T08:56:16.797Z,2.80
2022-08-09T08:57:11.406Z,2.80
2022-08-09T08:58:11.186Z,2.90
2022-08-09T08:59:19.850Z,3.00
2022-08-09T09:00:16.893Z,2.70
2022-08-09T09:01:20.912Z,2.90
2022-08-09T09:02:11.247Z,2.80
2022-08-09T09:03:16.466Z,2.90
2022-08-09T09:04:11.123Z,2.70
2022-08-09T09:05:11.879Z,3.00
2022-08-09T09:06:16.381Z,2.60
2022-08-09T09:07:11.160Z,2.80
2022-08-09T09:08:29.988Z,2.60
2022-08-09T09:09:21.321Z,2.60
2022-08-09T09:10:11.059Z,2.50
2022-08-09T09:11:25.847Z,2.60
2022-08-09T09:12:16.685Z,2.70
2022-08-09T09:13:11.596Z,2.70
2022-08-09T09:14:11.002Z,2.80
2022-08-09T09:15:12.081Z,2.70
2022-08-09T09:16:34.122Z,2.80
2022-08-09T09:17:10.934Z,2.70
2022-08-09T09:18:10.985Z,2.90
2022-08-09T09:20:10.901Z,2.60
2022-08-09T09:21:26.423Z,2.60
2022-08-09T09:22:11.379Z,2.60
2022-08-09T09:23:14.019Z,2.70
2022-08-09T09:24:15.242Z,2.40
2022-08-09T09:26:04.937Z,2.70
2022-08-09T09:26:26.071Z,2.60
2022-08-09T09:27:21.809Z,2.50
2022-08-09T09:28:11.158Z,2.50
2022-08-09T09:29:16.779Z,2.50
2022-08-09T09:30:20.132Z,2.60
2022-08-09T09:32:01.826Z,2.30
2022-08-09T09:32:15.693Z,2.40
2022-08-09T09:33:13.637Z,2.40
2022-08-09T09:34:10.722Z,2.40
2022-08-09T09:35:10.718Z,2.30
2022-08-09T09:36:24.886Z,2.40
2022-08-09T09:37:12.971Z,2.00
2022-08-09T09:38:27.643Z,2.20
2022-08-09T09:39:10.721Z,2.40
2022-08-09T09:40:11.521Z,2.20
2022-08-09T09:41:25.365Z,2.20
2022-08-09T09:42:10.933Z,2.30
2022-08-09T09:43:10.723Z,2.20
2022-08-09T09:44:15.258Z,2.20
2022-08-09T09:45:10.574Z,2.40
2022-08-09T09:47:10.564Z,2.10
2022-08-09T09:48:10.556Z,2.00
2022-08-09T09:49:10.523Z,2.20
2022-08-09T09:50:15.942Z,2.20
2022-08-09T09:51:38.585Z,2.10
2022-08-09T09:52:35.743Z,2.10
2022-08-09T09:53:10.759Z,2.00
2022-08-09T09:54:20.274Z,2.10
2022-08-09T09:55:27.545Z,2.40
2022-08-09T09:56:33.586Z,2.30
2022-08-09T09:58:03.555Z,2.10
2022-08-09T09:58:20.575Z,2.10
2022-08-09T09:59:10.386Z,2.10
2022-08-09T10:00:10.382Z,2.20
2022-08-09T10:01:31.490Z,2.10
2022-08-09T10:02:10.359Z,2.00
2022-08-09T10:03:13.897Z,2.10
2022-08-09T10:04:10.403Z,2.20
2022-08-09T10:05:10.305Z,2.10
2022-08-09T10:06:23.454Z,2.20
2022-08-09T10:07:10.362Z,2.40
2022-08-09T10:08:27.197Z,2.00
2022-08-09T10:09:11.700Z,2.30
2022-08-09T10:10:10.252Z,2.00
2022-08-09T10:11:53.955Z,2.30
2022-08-09T10:12:14.242Z,2.20
2022-08-09T10:13:10.215Z,2.00
2022-08-09T10:14:10.188Z,2.20
2022-08-09T10:15:17.159Z,2.30
2022-08-09T10:16:58.119Z,2.20
2022-08-09T10:17:39.931Z,2.20
2022-08-09T10:18:10.130Z,2.10
2022-08-09T10:19:10.264Z,2.00
2022-08-09T10:20:14.961Z,2.10
2022-08-09T10:21:23.933Z,2.10
2022-08-09T10:22:10.078Z,2.00
2022-08-09T10:23:10.061Z,2.00
2022-08-09T10:24:16.082Z,2.10
2022-08-09T10:25:11.979Z,2.10
2022-08-09T10:26:24.875Z,2.10
2022-08-09T10:27:10.393Z,2.00
2022-08-09T10:28:10.028Z,2.00
2022-08-09T10:29:32.737Z,2.10
2022-08-09T10:32:38.198Z,1.90
2022-08-09T10:33:09.956Z,2.20
2022-08-09T10:34:33.143Z,2.00
2022-08-09T10:35:09.917Z,2.20
2022-08-09T10:36:30.903Z,2.00
2022-08-09T10:37:09.966Z,2.50
2022-08-09T10:38:33.843Z,2.30
2022-08-09T10:39:14.157Z,2.30
2022-08-09T10:40:12.249Z,3.00
2022-08-09T10:41:37.396Z,2.10
2022-08-09T10:42:10.119Z,2.30
2022-08-09T10:43:09.802Z,2.70
2022-08-09T10:44:09.787Z,1.80
2022-08-09T10:45:10.565Z,1.90
2022-08-09T10:46:26.715Z,2.00
2022-08-09T10:48:12.458Z,2.00
2022-08-09T10:48:34.027Z,2.10
2022-08-09T10:49:10.522Z,2.10
2022-08-09T10:50:10.101Z,1.90
2022-08-09T10:51:29.877Z,2.20
2022-08-09T10:52:12.413Z,2.20
2022-08-09T10:53:10.605Z,2.00
2022-08-09T10:54:12.254Z,2.20
2022-08-09T10:55:09.646Z,1.90
2022-08-09T10:56:23.927Z,1.90
2022-08-09T10:57:09.624Z,1.90
2022-08-09T10:58:10.321Z,2.00
2022-08-09T10:59:09.589Z,1.90
2022-08-09T11:00:09.585Z,1.90
2022-08-09T11:03:13.559Z,1.90
2022-08-09T11:03:27.298Z,1.90
2022-08-09T11:03:56.104Z,1.90
2022-08-09T11:04:34.091Z,1.80
2022-08-09T11:05:34.115Z,1.80
2022-08-09T11:06:34.050Z,1.80
2022-08-09T11:07:57.337Z,1.90
2022-08-09T11:08:34.040Z,2.00
2022-08-09T11:09:36.693Z,2.10
2022-08-09T11:10:33.978Z,1.90
2022-08-09T11:11:36.891Z,2.10
2022-08-09T11:12:34.188Z,2.00
2022-08-09T11:13:51.295Z,2.00
2022-08-09T11:14:33.942Z,1.80
2022-08-09T11:15:38.417Z,1.90
2022-08-09T11:16:35.518Z,1.90
2022-08-09T11:17:33.904Z,1.90
2022-08-09T11:18:33.877Z,1.80
2022-08-09T11:20:09.961Z,1.80
2022-08-09T11:20:33.887Z,2.00
2022-08-09T11:21:33.834Z,1.90
2022-08-09T11:22:33.838Z,2.00
2022-08-09T11:23:33.819Z,2.00
2022-08-09T11:24:33.790Z,1.80
2022-08-09T11:25:47.880Z,1.80
2022-08-09T11:26:33.779Z,1.90
2022-08-09T11:28:03.745Z,1.90
2022-08-09T11:28:35.191Z,1.80
2022-08-09T11:30:04.053Z,1.90
2022-08-09T11:30:34.556Z,1.80
2022-08-09T11:31:36.810Z,1.80
2022-08-09T11:32:34.075Z,1.70
2022-08-09T11:33:33.730Z,1.90
2022-08-09T11:34:33.659Z,1.80
2022-08-09T11:35:34.912Z,1.80
2022-08-09T11:36:35.715Z,1.80
2022-08-09T11:37:40.984Z,1.80
2022-08-09T11:38:34.180Z,1.90
2022-08-09T11:39:33.781Z,2.00
2022-08-09T11:40:33.993Z,1.80
2022-08-09T11:41:37.687Z,1.90
2022-08-09T11:42:33.790Z,1.60
2022-08-09T11:43:33.573Z,1.90
2022-08-09T11:44:33.557Z,1.80
2022-08-09T11:45:42.197Z,1.70
2022-08-09T11:46:33.823Z,1.60
2022-08-09T11:47:33.500Z,1.80
2022-08-09T11:48:33.497Z,1.80
2022-08-09T11:49:42.965Z,1.80
2022-08-09T11:52:53.883Z,1.70
2022-08-09T11:53:57.828Z,1.80
2022-08-09T11:54:12.937Z,1.60
2022-08-09T11:54:27.702Z,1.70
2022-08-09T11:55:18.901Z,1.80
2022-08-09T11:56:20.443Z,1.90
2022-08-09T11:57:28.255Z,1.70
2022-08-09T11:58:19.709Z,1.50
2022-08-09T11:59:18.863Z,1.90
2022-08-09T12:00:24.292Z,1.80
2022-08-09T12:02:00.492Z,1.70
2022-08-09T12:02:37.711Z,1.70
2022-08-09T12:03:50.467Z,1.60
2022-08-09T12:04:23.711Z,1.60
2022-08-09T12:05:23.003Z,1.60
2022-08-09T12:06:32.579Z,1.80
2022-08-09T12:07:18.759Z,1.70
2022-08-09T12:08:21.609Z,1.80
2022-08-09T12:09:20.925Z,2.10
2022-08-09T12:10:38.615Z,2.00
2022-08-09T12:11:44.696Z,1.80
2022-08-09T12:12:20.458Z,1.70
2022-08-09T12:14:09.123Z,1.80
2022-08-09T12:14:36.961Z,1.80
2022-08-09T12:15:18.674Z,1.60
2022-08-09T12:16:30.296Z,1.80
2022-08-09T12:17:27.640Z,1.70
2022-08-09T12:18:29.806Z,1.80
2022-08-09T12:19:18.602Z,1.80
2022-08-09T12:20:21.672Z,1.40
2022-08-09T12:21:28.405Z,1.70
2022-08-09T12:22:18.587Z,1.80
2022-08-09T12:23:24.770Z,1.60
2022-08-09T12:24:18.568Z,1.70
2022-08-09T12:25:36.441Z,1.60
2022-08-09T12:26:26.585Z,1.60
2022-08-09T12:29:14.482Z,1.70
2022-08-09T12:29:52.372Z,1.70
2022-08-09T12:30:35.514Z,1.60
2022-08-09T12:30:44.296Z,1.70
2022-08-09T12:32:02.507Z,1.80
2022-08-09T12:32:44.458Z,1.60
2022-08-09T12:33:59.357Z,1.80
2022-08-09T12:34:44.251Z,1.50
2022-08-09T12:35:44.207Z,1.50
2022-08-09T12:36:44.218Z,1.70
2022-08-09T12:37:50.447Z,1.70
2022-08-09T12:38:44.197Z,1.70
2022-08-09T12:39:44.175Z,1.90
2022-08-09T12:40:44.152Z,1.60
2022-08-09T12:41:44.136Z,1.70
2022-08-09T12:42:44.121Z,1.60
2022-08-09T12:44:07.067Z,1.70
2022-08-09T12:44:51.974Z,1.70
2022-08-09T12:45:44.087Z,1.80
2022-08-09T12:46:44.078Z,1.60
2022-08-09T12:47:50.356Z,1.70
2022-08-09T12:48:44.064Z,1.50
2022-08-09T12:49:52.829Z,1.60
2022-08-09T12:50:44.072Z,1.60
2022-08-09T12:52:00.656Z,1.50
2022-08-09T12:53:09.046Z,1.70
2022-08-09T12:53:44.806Z,1.70
2022-08-09T12:54:44.002Z,1.70
2022-08-09T12:56:14.198Z,1.70
2022-08-09T12:56:51.220Z,1.60
2022-08-09T12:57:46.337Z,1.80
2022-08-09T12:58:43.918Z,1.60
2022-08-09T13:00:02.893Z,1.70
2022-08-09T13:00:43.965Z,1.70
2022-08-09T13:01:49.069Z,2.00
2022-08-09T13:02:43.878Z,1.60
2022-08-09T13:03:57.298Z,1.60
2022-08-09T13:04:43.853Z,1.70
2022-08-09T13:06:13.159Z,2.00
2022-08-09T13:06:43.845Z,1.60
2022-08-09T13:07:51.278Z,1.50
2022-08-09T13:08:43.805Z,1.50
2022-08-09T13:09:52.752Z,1.80
2022-08-09T13:10:43.794Z,1.60
2022-08-09T13:11:43.770Z,1.80
2022-08-09T13:13:09.152Z,2.10
2022-08-09T13:14:41.025Z,1.70
2022-08-09T13:14:54.945Z,1.50
2022-08-09T13:15:43.701Z,1.50
2022-08-09T13:16:45.862Z,1.60
2022-08-09T13:18:05.185Z,1.70
2022-08-09T13:18:43.674Z,1.50
2022-08-09T13:20:09.747Z,2.00
2022-08-09T13:21:04.269Z,1.80
2022-08-09T13:23:02.015Z,1.50
2022-08-09T13:24:07.283Z,1.50
2022-08-09T13:24:54.167Z,1.50
2022-08-09T13:24:59.834Z,1.60
2022-08-09T13:25:56.374Z,1.50
2022-08-09T13:26:56.371Z,1.70